Time;durP1;ratioP1;P1;durP2;ratioP2;P2;SDS_P1;SDS_P2;PMS_P1;PMS_P2;Temp;Humidity;BMP_temperature;BMP_pressure;BME280_temperature;BME280_humidity;BME280_pressure;Samples;Min_cycle;Max_cycle;Signal;HPM_P1;HPM_P2
2023/11/23 00:00:23;;;;;;;31.08;14.88;;;10.30;99.90;;;;;;7405149;19;20053;-73
2023/11/23 00:02:52;;;;;;;28.90;15.85;;;10.30;99.90;;;;;;7384373;19;20006;-73
2023/11/23 00:05:21;;;;;;;34.88;14.70;;;10.30;99.90;;;;;;7387012;19;20016;-75
2023/11/23 00:07:50;;;;;;;33.03;14.82;;;10.30;99.90;;;;;;7386353;19;20365;-73
2023/11/23 00:10:19;;;;;;;30.60;15.35;;;10.30;99.90;;;;;;7390144;19;20387;-73
2023/11/23 00:12:47;;;;;;;35.00;16.10;;;10.40;99.90;;;;;;7400345;19;20006;-73
2023/11/23 00:15:16;;;;;;;33.33;15.25;;;10.40;99.90;;;;;;7406067;19;20014;-73
2023/11/23 00:17:48;;;;;;;32.05;16.30;;;10.50;99.90;;;;;;7383549;19;20003;-73
2023/11/23 00:20:16;;;;;;;24.15;13.48;;;10.50;99.90;;;;;;7384012;19;20059;-74
2023/11/23 00:22:46;;;;;;;25.92;14.25;;;10.50;99.90;;;;;;7382985;19;20052;-74
2023/11/23 00:25:15;;;;;;;38.97;15.02;;;10.60;99.90;;;;;;7383193;19;20011;-74
2023/11/23 00:27:44;;;;;;;27.70;14.60;;;10.60;99.90;;;;;;7404372;19;20026;-74
2023/11/23 00:30:14;;;;;;;30.77;15.80;;;10.60;99.90;;;;;;7382417;19;20009;-73
2023/11/23 00:32:43;;;;;;;31.42;16.17;;;10.60;99.90;;;;;;7382208;19;20011;-73
2023/11/23 00:35:14;;;;;;;31.77;15.77;;;10.60;99.90;;;;;;7381383;19;20070;-74
2023/11/23 00:37:44;;;;;;;27.45;14.43;;;10.60;99.90;;;;;;7383241;19;20003;-74
2023/11/23 00:40:14;;;;;;;34.00;15.57;;;10.70;99.90;;;;;;7382780;19;20306;-74
2023/11/23 00:42:42;;;;;;;32.53;15.80;;;10.70;99.90;;;;;;7404491;19;20066;-73
2023/11/23 00:45:14;;;;;;;31.63;15.15;;;10.60;99.90;;;;;;7380731;19;20070;-73
2023/11/23 00:47:45;;;;;;;32.28;15.07;;;10.60;99.90;;;;;;7382158;19;20010;-73
2023/11/23 00:50:16;;;;;;;32.88;15.15;;;10.60;99.90;;;;;;7382247;19;20243;-73
2023/11/23 00:52:45;;;;;;;;;;;10.70;99.90;;;;;;7381863;19;20094;-74
2023/11/23 00:55:13;;;;;;;34.20;14.77;;;10.70;99.90;;;;;;7381079;19;20186;-74
2023/11/23 00:57:42;;;;;;;30.85;15.32;;;10.80;99.90;;;;;;7403813;19;20250;-74
2023/11/23 01:00:15;;;;;;;35.72;16.67;;;10.80;99.90;;;;;;7381781;19;20078;-73
2023/11/23 01:02:44;;;;;;;25.73;14.68;;;10.80;99.90;;;;;;7381530;19;20405;-73
2023/11/23 01:05:15;;;;;;;27.75;15.60;;;10.80;99.90;;;;;;7381882;19;20003;-73
2023/11/23 01:07:46;;;;;;;27.15;14.10;;;10.80;99.90;;;;;;7381913;19;20010;-72
2023/11/23 01:10:16;;;;;;;30.30;15.73;;;10.80;99.90;;;;;;7382696;19;20015;-73
2023/11/23 01:12:45;;;;;;;29.33;14.23;;;10.90;99.90;;;;;;7405276;19;20007;-73
2023/11/23 01:15:14;;;;;;;27.58;14.85;;;10.80;99.90;;;;;;7379607;19;20354;-72
2023/11/23 01:20:53;;;;;;;28.70;15.47;;;10.80;99.90;;;;;;7378672;19;20002;-73
2023/11/23 01:23:25;;;;;;;32.80;15.80;;;10.80;99.90;;;;;;7381304;19;20347;-72
2023/11/23 01:25:54;;;;;;;34.72;15.75;;;10.80;99.90;;;;;;7381590;19;20007;-73
2023/11/23 01:28:22;;;;;;;35.20;17.10;;;10.90;99.90;;;;;;7381541;19;20035;-72
2023/11/23 01:30:51;;;;;;;31.85;15.82;;;10.90;99.90;;;;;;7381096;19;20007;-73
2023/11/23 01:33:22;;;;;;;32.22;17.15;;;10.90;99.90;;;;;;7402261;19;20034;-73
2023/11/23 01:35:51;;;;;;;34.13;16.92;;;10.90;99.90;;;;;;7378253;19;20007;-72
2023/11/23 01:38:20;;;;;;;29.58;14.98;;;10.90;99.90;;;;;;7380785;19;20468;-72
2023/11/23 01:40:51;;;;;;;27.83;14.52;;;10.90;99.90;;;;;;7381052;19;20015;-72
2023/11/23 01:43:20;;;;;;;39.55;15.40;;;10.90;99.90;;;;;;7381386;19;20066;-72
2023/11/23 01:45:49;;;;;;;24.10;13.88;;;10.90;99.90;;;;;;7376348;19;20023;-73
2023/11/23 01:48:18;;;;;;;28.48;13.38;;;10.90;99.90;;;;;;7401919;19;20058;-73
2023/11/23 01:50:49;;;;;;;35.25;15.55;;;10.90;99.90;;;;;;7380126;19;20023;-73
2023/11/23 01:53:19;;;;;;;25.90;14.13;;;10.90;99.90;;;;;;7380404;19;20002;-73
2023/11/23 01:55:47;;;;;;;31.42;13.90;;;10.90;99.90;;;;;;7379516;19;20283;-73
2023/11/23 01:58:21;;;;;;;24.17;14.02;;;11.00;99.90;;;;;;7379707;19;20357;-72
2023/11/23 02:00:51;;;;;;;27.10;13.95;;;11.00;99.90;;;;;;7380925;19;20082;-73
2023/11/23 02:03:21;;;;;;;24.70;13.13;;;11.00;99.90;;;;;;7401148;19;20357;-72
2023/11/23 02:05:50;;;;;;;26.00;13.60;;;11.00;99.90;;;;;;7379690;19;20414;-73
2023/11/23 02:08:18;;;;;;;22.02;12.95;;;11.00;99.90;;;;;;7379948;19;20011;-72
2023/11/23 02:10:47;;;;;;;27.83;12.45;;;11.00;99.90;;;;;;7380210;19;20009;-72
2023/11/23 02:13:19;;;;;;;29.10;13.60;;;11.00;99.90;;;;;;7380364;19;20017;-72
2023/11/23 02:15:48;;;;;;;31.13;14.77;;;11.10;99.90;;;;;;7385515;19;20437;-73
2023/11/23 02:18:16;;;;;;;31.23;13.30;;;11.10;99.90;;;;;;7401988;19;20007;-72
2023/11/23 02:20:46;;;;;;;24.30;12.60;;;11.10;99.90;;;;;;7382714;19;20090;-72
2023/11/23 02:23:15;;;;;;;22.95;12.15;;;11.10;99.90;;;;;;7382797;19;20614;-72
2023/11/23 02:25:46;;;;;;;27.60;12.80;;;11.10;99.90;;;;;;7382454;19;20350;-72
2023/11/23 02:28:15;;;;;;;;;;;11.10;99.90;;;;;;7382819;19;20019;-73
2023/11/23 02:30:43;;;;;;;24.63;12.20;;;11.10;99.90;;;;;;7402121;19;19962;-73
2023/11/23 02:33:13;;;;;;;30.48;13.73;;;11.10;99.90;;;;;;7378782;19;20006;-72
2023/11/23 02:35:42;;;;;;;25.70;13.00;;;11.10;99.90;;;;;;7377560;19;20011;-73
2023/11/23 02:38:11;;;;;;;21.70;12.30;;;11.10;99.90;;;;;;7379200;19;20070;-72
2023/11/23 02:40:39;;;;;;;25.98;12.30;;;11.10;99.90;;;;;;7379239;19;20071;-73
2023/11/23 02:43:11;;;;;;;31.75;12.27;;;11.10;99.90;;;;;;7379366;19;20045;-73
2023/11/23 02:45:41;;;;;;;23.08;12.23;;;11.10;99.90;;;;;;7398839;19;20243;-73
2023/11/23 02:48:10;;;;;;;26.67;12.63;;;11.10;99.90;;;;;;7378282;19;20022;-73
2023/11/23 02:50:39;;;;;;;25.52;12.63;;;11.10;99.90;;;;;;7378262;19;20012;-73
2023/11/23 02:53:17;;;;;;;23.85;11.95;;;11.20;99.90;;;;;;7378552;19;20010;-73
2023/11/23 02:55:45;;;;;;;22.98;12.32;;;11.20;99.90;;;;;;7378069;19;20297;-73
2023/11/23 02:58:16;;;;;;;26.02;12.25;;;11.20;99.90;;;;;;7378272;19;20007;-73
2023/11/23 03:00:45;;;;;;;24.27;12.23;;;11.20;99.90;;;;;;7398001;19;20070;-73
2023/11/23 03:03:14;;;;;;;33.53;12.57;;;11.20;99.90;;;;;;7377752;19;20018;-73
2023/11/23 03:05:43;;;;;;;22.67;11.68;;;11.20;99.90;;;;;;7377726;19;20047;-73
2023/11/23 03:08:11;;;;;;;28.48;12.38;;;11.20;99.90;;;;;;7378368;19;20024;-73
2023/11/23 03:10:40;;;;;;;25.45;12.02;;;11.20;99.90;;;;;;7378192;19;20303;-73
2023/11/23 03:13:09;;;;;;;21.75;11.80;;;11.20;99.90;;;;;;7378935;19;20015;-73
2023/11/23 03:15:40;;;;;;;24.60;11.60;;;11.20;99.90;;;;;;7398051;19;20398;-73
2023/11/23 03:18:09;;;;;;;23.63;10.95;;;11.20;99.90;;;;;;7377172;19;20109;-73
2023/11/23 03:20:39;;;;;;;27.42;11.98;;;11.30;99.90;;;;;;7377195;19;20011;-73
2023/11/23 03:23:08;;;;;;;19.58;11.10;;;11.30;99.90;;;;;;7377762;19;19999;-73
2023/11/23 03:25:37;;;;;;;23.60;12.40;;;11.30;99.90;;;;;;7378372;19;20017;-73
2023/11/23 03:28:07;;;;;;;19.00;11.80;;;11.30;99.90;;;;;;7377843;19;20014;-72
2023/11/23 03:30:36;;;;;;;27.80;11.35;;;11.30;99.90;;;;;;7399447;19;20018;-72
2023/11/23 03:33:07;;;;;;;18.17;9.75;;;11.30;99.90;;;;;;7376649;19;20013;-72
2023/11/23 03:35:36;;;;;;;19.90;10.82;;;11.30;99.90;;;;;;7376235;19;20074;-72
2023/11/23 03:38:05;;;;;;;19.85;9.95;;;11.30;99.90;;;;;;7377026;19;20014;-72
2023/11/23 03:40:34;;;;;;;18.58;9.40;;;11.30;99.90;;;;;;7377482;19;20006;-72
2023/11/23 03:43:02;;;;;;;21.13;9.90;;;11.30;99.90;;;;;;7377080;19;20278;-74
2023/11/23 03:45:31;;;;;;;22.33;10.30;;;11.30;99.90;;;;;;7397119;19;20079;-73
2023/11/23 03:48:01;;;;;;;21.40;10.52;;;11.30;99.90;;;;;;7376407;19;20074;-73
2023/11/23 03:50:33;;;;;;;16.83;8.82;;;11.30;99.90;;;;;;7376472;19;20007;-73
2023/11/23 03:53:01;;;;;;;16.10;9.43;;;11.30;99.90;;;;;;7376949;19;20362;-73
2023/11/23 03:55:30;;;;;;;20.20;8.43;;;11.20;99.90;;;;;;7376470;19;20006;-73
2023/11/23 03:57:59;;;;;;;15.80;8.73;;;11.20;99.90;;;;;;7376921;19;20006;-73
2023/11/23 04:00:27;;;;;;;17.30;8.65;;;11.30;99.90;;;;;;7398357;19;20039;-73
2023/11/23 04:02:56;;;;;;;19.52;9.15;;;11.30;99.90;;;;;;7376273;19;19998;-73
2023/11/23 04:05:25;;;;;;;18.33;9.23;;;11.40;99.90;;;;;;7376974;19;20007;-73
2023/11/23 04:07:56;;;;;;;16.98;9.00;;;11.40;99.90;;;;;;7376601;19;20242;-73
2023/11/23 04:10:25;;;;;;;20.23;9.43;;;11.40;99.90;;;;;;7384667;19;20007;-73
2023/11/23 04:12:54;;;;;;;16.30;8.57;;;11.40;99.90;;;;;;7385361;19;20023;-73
2023/11/23 04:15:23;;;;;;;20.13;9.07;;;11.50;99.90;;;;;;7404476;19;20019;-73
2023/11/23 04:17:52;;;;;;;14.55;8.15;;;11.50;99.90;;;;;;7382867;19;20007;-72
2023/11/23 04:20:21;;;;;;;21.80;8.80;;;11.40;99.90;;;;;;7383473;19;20082;-72
2023/11/23 04:22:49;;;;;;;13.65;7.82;;;11.50;99.90;;;;;;7383219;19;20015;-72
2023/11/23 04:25:20;;;;;;;18.70;8.23;;;11.50;99.90;;;;;;7383135;19;20019;-72
2023/11/23 04:27:49;;;;;;;16.15;7.47;;;11.50;99.90;;;;;;7382634;19;20281;-72
2023/11/23 04:30:18;;;;;;;14.93;8.05;;;11.50;99.90;;;;;;7404345;19;20007;-72
2023/11/23 04:32:46;;;;;;;18.08;7.57;;;11.50;99.90;;;;;;7383823;19;20010;-72
2023/11/23 04:35:15;;;;;;;21.75;8.55;;;11.60;99.90;;;;;;7389461;19;20074;-73
2023/11/23 04:37:45;;;;;;;14.20;8.18;;;11.50;99.90;;;;;;7389838;19;20007;-72
2023/11/23 04:40:14;;;;;;;14.25;8.15;;;11.60;99.90;;;;;;7390091;19;20377;-72
2023/11/23 04:42:45;;;;;;;21.90;8.73;;;11.60;99.90;;;;;;7411407;19;20011;-73
2023/11/23 04:45:14;;;;;;;16.58;8.15;;;11.60;99.90;;;;;;7382066;19;20007;-73
2023/11/23 04:47:43;;;;;;;17.67;7.88;;;11.50;99.90;;;;;;7382049;19;20297;-72
2023/11/23 04:50:13;;;;;;;17.27;8.10;;;11.60;99.90;;;;;;7382376;19;20006;-72
2023/11/23 04:52:42;;;;;;;23.77;8.18;;;11.60;99.90;;;;;;7382529;19;19999;-72
2023/11/23 04:55:10;;;;;;;14.25;7.80;;;11.60;99.90;;;;;;7381822;19;20007;-72
2023/11/23 04:57:39;;;;;;;20.35;7.72;;;11.60;99.90;;;;;;7403748;19;20252;-72
2023/11/23 05:00:12;;;;;;;19.80;7.80;;;11.60;99.90;;;;;;7381710;19;20026;-72
2023/11/23 05:02:43;;;;;;;15.32;7.30;;;11.50;99.90;;;;;;7381789;19;20003;-72
2023/11/23 05:05:13;;;;;;;20.52;7.32;;;11.50;99.90;;;;;;7381438;19;20284;-72
2023/11/23 05:07:42;;;;;;;19.13;8.00;;;11.50;99.90;;;;;;7381601;19;20098;-72
2023/11/23 05:10:12;;;;;;;12.75;7.18;;;11.60;99.90;;;;;;7383868;19;20007;-72
2023/11/23 05:12:41;;;;;;;13.43;6.15;;;11.60;99.90;;;;;;7403804;19;19999;-73
2023/11/23 05:15:13;;;;;;;14.55;6.85;;;11.60;99.90;;;;;;7380652;19;20022;-73
2023/11/23 05:17:42;;;;;;;12.88;7.53;;;11.60;99.90;;;;;;7381223;19;20010;-72
2023/11/23 05:20:12;;;;;;;18.02;7.07;;;11.60;99.90;;;;;;7381114;19;20062;-73
2023/11/23 05:22:43;;;;;;;17.60;7.30;;;11.60;99.90;;;;;;7381480;19;20007;-72
2023/11/23 05:25:12;;;;;;;11.95;6.50;;;11.60;99.90;;;;;;7382103;19;20036;-72
2023/11/23 05:27:40;;;;;;;13.68;7.15;;;11.50;99.90;;;;;;7402501;19;20215;-72
2023/11/23 05:30:13;;;;;;;12.13;7.18;;;11.60;99.90;;;;;;7380266;19;20010;-72
2023/11/23 05:32:42;;;;;;;10.65;6.43;;;11.50;99.90;;;;;;7380406;19;20058;-72
2023/11/23 05:35:12;;;;;;;12.90;6.75;;;11.60;99.90;;;;;;7381206;19;20003;-72
2023/11/23 05:37:41;;;;;;;10.65;5.72;;;11.60;99.90;;;;;;7381748;19;20007;-72
2023/11/23 05:40:12;;;;;;;13.38;7.07;;;11.60;99.90;;;;;;7381012;19;20070;-72
2023/11/23 05:42:41;;;;;;;14.75;6.75;;;11.70;99.90;;;;;;7402883;19;20018;-72
2023/11/23 05:45:13;;;;;;;15.45;7.00;;;11.70;99.90;;;;;;7378909;19;20409;-73
2023/11/23 05:47:42;;;;;;;14.85;7.20;;;11.70;99.90;;;;;;7379843;19;20031;-73
2023/11/23 05:50:12;;;;;;;16.25;6.55;;;11.70;99.90;;;;;;7380515;19;20066;-73
2023/11/23 05:52:41;;;;;;;19.77;6.88;;;11.70;99.90;;;;;;7378993;19;20002;-72
2023/11/23 05:55:11;;;;;;;13.70;7.38;;;11.70;99.90;;;;;;7380426;19;20078;-72
2023/11/23 05:57:39;;;;;;;13.23;9.18;;;11.70;99.90;;;;;;7400057;19;20010;-73
2023/11/23 06:00:14;;;;;;;18.75;6.80;;;11.70;99.90;;;;;;7379089;19;20079;-73
2023/11/23 06:02:42;;;;;;;10.43;6.07;;;11.80;99.90;;;;;;7379717;19;20026;-73
2023/11/23 06:05:12;;;;;;;14.20;6.47;;;11.80;99.90;;;;;;7380187;19;20172;-73
2023/11/23 06:07:40;;;;;;;14.15;6.15;;;11.80;99.90;;;;;;7380037;19;20074;-73
2023/11/23 06:10:11;;;;;;;11.50;6.28;;;11.80;99.90;;;;;;7379850;19;20377;-73
2023/11/23 06:12:40;;;;;;;15.85;7.53;;;11.80;99.90;;;;;;7401180;19;20032;-73
2023/11/23 06:15:12;;;;;;;13.02;6.80;;;11.80;99.90;;;;;;7379054;19;20615;-73
2023/11/23 06:17:41;;;;;;;16.00;7.43;;;11.80;99.90;;;;;;7379009;19;20006;-73
2023/11/23 06:20:12;;;;;;;20.40;7.43;;;11.80;99.90;;;;;;7379639;19;20020;-73
2023/11/23 06:22:40;;;;;;;;;;;11.80;99.90;;;;;;7380368;19;20006;-73
2023/11/23 06:25:12;;;;;;;16.95;6.28;;;11.90;99.90;;;;;;7379424;19;19927;-73
2023/11/23 06:27:40;;;;;;;;;;;11.80;99.90;;;;;;7401414;19;20013;-73
2023/11/23 06:30:14;;;;;;;14.48;6.45;;;11.90;99.90;;;;;;7378684;19;20246;-73
2023/11/23 06:32:43;;;;;;;20.60;7.32;;;11.90;99.90;;;;;;7377165;19;20062;-72
2023/11/23 06:35:12;;;;;;;15.45;7.22;;;11.90;99.90;;;;;;7379320;19;20119;-72
2023/11/23 06:37:41;;;;;;;18.10;7.13;;;11.90;99.90;;;;;;7378039;19;20374;-73
2023/11/23 06:40:11;;;;;;;17.58;6.85;;;11.90;99.90;;;;;;7378869;19;20024;-73
2023/11/23 06:42:39;;;;;;;24.02;7.20;;;11.80;99.90;;;;;;7400315;19;20007;-73
2023/11/23 06:45:13;;;;;;;17.10;7.07;;;11.90;99.90;;;;;;7377702;19;20027;-73
2023/11/23 06:47:42;;;;;;;15.05;7.07;;;11.90;99.90;;;;;;7384466;19;20003;-73
2023/11/23 06:50:11;;;;;;;17.83;7.40;;;11.90;99.90;;;;;;7385677;19;20007;-73
2023/11/23 06:52:40;;;;;;;13.05;6.97;;;11.90;99.90;;;;;;7385743;19;20397;-73
2023/11/23 06:55:10;;;;;;;13.63;7.25;;;11.90;99.90;;;;;;7386416;19;20018;-73
2023/11/23 06:57:42;;;;;;;16.40;7.55;;;11.90;99.90;;;;;;7405305;19;20023;-73
2023/11/23 07:00:21;;;;;;;17.25;7.55;;;11.90;99.90;;;;;;7379057;19;20027;-73
2023/11/23 07:02:51;;;;;;;15.95;7.65;;;11.90;99.90;;;;;;7381122;19;20294;-73
2023/11/23 07:05:21;;;;;;;20.33;7.97;;;11.90;99.90;;;;;;7378237;19;20052;-73
2023/11/23 07:07:50;;;;;;;20.23;8.40;;;11.90;99.90;;;;;;7378883;19;20091;-74
2023/11/23 07:10:20;;;;;;;21.00;8.57;;;11.90;99.90;;;;;;7378465;19;20298;-74
2023/11/23 07:12:49;;;;;;;37.72;9.07;;;11.90;99.90;;;;;;7380900;19;20405;-74
2023/11/23 07:15:23;;;;;;;18.33;8.52;;;11.90;99.90;;;;;;7401240;19;20015;-73
2023/11/23 07:17:52;;;;;;;21.70;9.27;;;11.90;99.90;;;;;;7377153;19;20066;-74
2023/11/23 07:20:21;;;;;;;119.70;45.38;;;11.90;99.90;;;;;;7377659;19;20027;-74
2023/11/23 07:22:49;;;;;;;108.38;37.53;;;11.90;99.90;;;;;;7377760;19;20007;-74
2023/11/23 07:25:18;;;;;;;73.75;30.30;;;11.90;99.90;;;;;;7377554;19;20006;-74
2023/11/23 07:27:47;;;;;;;51.33;21.70;;;12.00;99.90;;;;;;7397278;19;20066;-73
2023/11/23 07:30:16;;;;;;;39.95;17.00;;;12.00;99.90;;;;;;7398457;19;20010;-73
2023/11/23 07:32:47;;;;;;;35.47;15.95;;;12.00;99.90;;;;;;7376093;19;20011;-73
2023/11/23 07:35:16;;;;;;;38.00;16.30;;;12.00;99.90;;;;;;7377253;19;20021;-73
2023/11/23 07:37:45;;;;;;;25.67;11.93;;;12.00;99.90;;;;;;7376416;19;20055;-73
2023/11/23 07:40:15;;;;;;;20.52;10.48;;;12.00;99.90;;;;;;7377157;19;20003;-73
2023/11/23 07:42:44;;;;;;;22.90;9.32;;;12.00;99.90;;;;;;7398632;19;20532;-73
2023/11/23 07:45:14;;;;;;;19.08;9.15;;;12.00;99.90;;;;;;7381350;19;20071;-73
2023/11/23 07:47:46;;;;;;;14.73;8.52;;;12.00;99.90;;;;;;7383816;19;20397;-73
2023/11/23 07:50:17;;;;;;;23.52;8.93;;;12.00;99.90;;;;;;7384646;19;20003;-74
2023/11/23 07:52:46;;;;;;;19.23;8.57;;;12.00;99.90;;;;;;7384153;19;20078;-73
2023/11/23 07:55:15;;;;;;;18.20;8.35;;;12.10;99.90;;;;;;7384206;19;20003;-74
2023/11/23 07:57:44;;;;;;;16.33;8.93;;;12.10;99.90;;;;;;7404352;19;20010;-74
2023/11/23 08:00:14;;;;;;;21.33;8.93;;;12.10;99.90;;;;;;7383335;19;20716;-74
2023/11/23 08:02:43;;;;;;;18.27;8.50;;;12.10;99.90;;;;;;7384015;19;20511;-78
2023/11/23 08:05:15;;;;;;;21.38;8.95;;;12.10;99.90;;;;;;7385225;19;20017;-79
2023/11/23 08:07:44;;;;;;;26.40;8.93;;;12.10;99.90;;;;;;7386776;19;20081;-75
2023/11/23 08:10:15;;;;;;;23.98;9.60;;;12.20;99.90;;;;;;7384133;19;19999;-77
2023/11/23 08:12:44;;;;;;;27.00;9.32;;;12.20;99.90;;;;;;7405999;19;20345;-75
2023/11/23 08:15:13;;;;;;;23.45;9.43;;;12.20;99.90;;;;;;7383104;19;20007;-75
2023/11/23 08:17:43;;;;;;;25.38;9.93;;;12.20;99.90;;;;;;7380839;19;20098;-75
2023/11/23 08:20:15;;;;;;;20.83;10.18;;;12.20;99.90;;;;;;7383123;19;20546;-76
2023/11/23 08:22:46;;;;;;;29.55;10.32;;;12.20;99.90;;;;;;7385674;19;20011;-78
2023/11/23 08:25:14;;;;;;;18.00;10.65;;;12.20;99.90;;;;;;7383552;19;20354;-79
2023/11/23 08:27:43;;;;;;;24.20;10.32;;;12.20;99.90;;;;;;7408986;19;20031;-78
2023/11/23 08:30:15;;;;;;;28.50;10.43;;;12.30;99.90;;;;;;7387462;19;20212;-77
2023/11/23 08:32:44;;;;;;;23.48;10.38;;;12.20;99.90;;;;;;7387881;19;20031;-78
2023/11/23 08:35:15;;;;;;;30.83;11.43;;;12.30;99.90;;;;;;7386068;19;20010;-79
2023/11/23 08:37:44;;;;;;;26.90;12.05;;;12.30;99.90;;;;;;7383495;19;20011;-76
2023/11/23 08:40:13;;;;;;;25.40;11.32;;;12.30;99.90;;;;;;7386293;19;20015;-77
2023/11/23 08:42:42;;;;;;;22.30;11.98;;;12.30;99.90;;;;;;7408732;19;20002;-75
2023/11/23 08:45:11;;;;;;;37.88;14.57;;;12.30;99.90;;;;;;7382494;19;20329;-77
2023/11/23 08:47:40;;;;;;;40.63;18.05;;;12.40;99.90;;;;;;7384109;19;20007;-77
2023/11/23 08:50:10;;;;;;;53.65;20.80;;;12.40;99.90;;;;;;7385389;19;20018;-79
2023/11/23 08:52:41;;;;;;;79.80;35.55;;;12.40;99.90;;;;;;7381360;19;20006;-74
2023/11/23 08:55:11;;;;;;;83.45;32.10;;;12.40;99.90;;;;;;7383572;19;20058;-74
2023/11/23 08:57:40;;;;;;;39.55;18.58;;;12.50;99.90;;;;;;7402711;19;20010;-75
2023/11/23 09:00:12;;;;;;;34.42;17.08;;;12.50;99.90;;;;;;7381406;19;20721;-74
2023/11/23 09:02:41;;;;;;;42.92;16.80;;;12.50;99.90;;;;;;7381606;19;20006;-75
2023/11/23 09:05:11;;;;;;;50.45;17.40;;;12.50;99.90;;;;;;7392467;19;20039;-78
2023/11/23 09:07:43;;;;;;;33.28;15.13;;;12.50;99.90;;;;;;7392843;19;20423;-78
2023/11/23 09:10:16;;;;;;;27.55;13.70;;;12.60;99.90;;;;;;7395095;19;20030;-81
2023/11/23 09:12:55;;;;;;;25.27;11.77;;;12.60;99.90;;;;;;7419297;19;20018;-82
2023/11/23 09:15:23;;;;;;;22.25;11.70;;;12.70;99.90;;;;;;7394830;19;20247;-78
2023/11/23 09:17:52;;;;;;;21.48;11.35;;;12.70;99.90;;;;;;7382171;19;20078;-74
2023/11/23 09:20:21;;;;;;;30.90;12.38;;;12.70;99.90;;;;;;7381275;19;20013;-74
2023/11/23 09:22:52;;;;;;;21.77;10.52;;;12.80;99.90;;;;;;7381780;19;20019;-75
2023/11/23 09:25:24;;;;;;;21.52;11.07;;;12.80;99.90;;;;;;7381979;19;20007;-76
2023/11/23 09:27:52;;;;;;;;;;;12.80;99.90;;;;;;7382388;19;20245;-76
2023/11/23 09:30:22;;;;;;;18.50;9.38;;;12.90;99.90;;;;;;7402995;19;20123;-74
2023/11/23 09:32:50;;;;;;;20.67;10.38;;;12.90;99.90;;;;;;7380596;19;20006;-76
2023/11/23 09:35:19;;;;;;;33.45;12.18;;;12.90;99.90;;;;;;7380760;19;20417;-77
2023/11/23 09:37:48;;;;;;;24.10;10.05;;;12.90;99.90;;;;;;7380635;19;20215;-75
2023/11/23 09:40:20;;;;;;;23.55;12.43;;;13.00;99.90;;;;;;7380744;19;20062;-74
2023/11/23 09:42:50;;;;;;;29.90;11.57;;;13.00;99.90;;;;;;7378605;19;20002;-77
2023/11/23 09:45:20;;;;;;;23.00;11.27;;;13.00;99.90;;;;;;7401145;19;20003;-77
2023/11/23 09:47:51;;;;;;;21.35;11.45;;;13.00;99.90;;;;;;7380777;19;20027;-76
2023/11/23 09:50:20;;;;;;;29.90;12.40;;;13.00;99.90;;;;;;7380822;19;20113;-77
2023/11/23 09:52:49;;;;;;;25.83;12.70;;;13.00;99.90;;;;;;7379915;19;20410;-73
2023/11/23 09:55:20;;;;;;;29.10;15.68;;;13.00;99.90;;;;;;7381369;19;20003;-77
2023/11/23 09:57:50;;;;;;;36.10;17.17;;;13.00;99.90;;;;;;7380060;19;20023;-73
2023/11/23 10:00:21;;;;;;;31.02;13.23;;;13.00;99.90;;;;;;7401098;19;20611;-73
2023/11/23 10:02:55;;;;;;;29.23;12.57;;;12.90;99.90;;;;;;7379172;19;20023;-75
2023/11/23 10:05:26;;;;;;;23.13;13.25;;;12.90;99.90;;;;;;7379780;19;20022;-74
2023/11/23 10:07:54;;;;;;;25.10;14.88;;;12.90;99.90;;;;;;7377664;19;20028;-75
2023/11/23 10:10:27;;;;;;;24.65;12.90;;;12.90;99.90;;;;;;7379712;19;20015;-73
2023/11/23 10:12:56;;;;;;;19.00;11.32;;;12.90;99.90;;;;;;7379308;19;20011;-74
2023/11/23 10:15:27;;;;;;;17.48;9.50;;;13.00;99.90;;;;;;7401516;19;20078;-75
2023/11/23 10:17:56;;;;;;;18.90;10.77;;;13.00;99.90;;;;;;7378158;19;20006;-77
2023/11/23 10:20:25;;;;;;;25.23;10.77;;;13.00;99.90;;;;;;7380009;19;20007;-73
2023/11/23 10:22:54;;;;;;;19.58;10.25;;;13.10;99.90;;;;;;7381506;19;19998;-74
2023/11/23 10:25:31;;;;;;;18.10;9.40;;;13.10;99.90;;;;;;7378416;19;20058;-73
2023/11/23 10:28:01;;;;;;;14.70;9.43;;;13.10;99.90;;;;;;7379544;19;20011;-75
2023/11/23 10:30:30;;;;;;;15.52;7.95;;;13.10;99.90;;;;;;7400304;19;20014;-76
2023/11/23 10:33:00;;;;;;;13.23;8.20;;;13.10;99.90;;;;;;7378797;19;20323;-75
2023/11/23 10:35:38;;;;;;;18.40;7.88;;;13.00;99.90;;;;;;7378917;19;20082;-78
2023/11/23 10:38:10;;;;;;;12.80;7.28;;;13.10;99.90;;;;;;7379979;19;20007;-78
2023/11/23 10:40:47;;;;;;;;;;;13.10;99.90;;;;;;7383751;19;20026;-80
2023/11/23 10:43:25;;;;;;;18.52;8.30;;;13.20;99.90;;;;;;7383873;19;19925;-79
2023/11/23 10:45:54;;;;;;;14.38;8.40;;;13.20;99.90;;;;;;7377320;19;20358;-75
2023/11/23 10:51:23;;;;;;;18.90;8.70;;;13.10;99.90;;;;;;7382070;19;20367;-76
2023/11/23 10:53:52;;;;;;;15.95;8.80;;;13.00;99.90;;;;;;7377492;19;20377;-74
2023/11/23 10:56:27;;;;;;;20.42;9.52;;;13.00;99.90;;;;;;7378500;19;20082;-76
2023/11/23 10:58:59;;;;;;;19.70;9.90;;;13.10;99.90;;;;;;7378406;19;20009;-76
2023/11/23 11:01:30;;;;;;;18.10;9.80;;;13.20;99.90;;;;;;7378469;19;19999;-78
2023/11/23 11:03:59;;;;;;;15.43;9.65;;;13.20;99.90;;;;;;7380065;19;20031;-79
2023/11/23 11:06:40;;;;;;;18.27;10.95;;;13.20;99.90;;;;;;7400710;19;20023;-75
2023/11/23 11:09:22;;;;;;;19.63;10.60;;;13.30;99.90;;;;;;7377777;19;20261;-78
2023/11/23 11:12:00;;;;;;;16.73;10.60;;;13.30;99.90;;;;;;7377863;19;20006;-75
2023/11/23 11:14:35;;;;;;;19.85;10.63;;;13.20;99.90;;;;;;7377836;19;20058;-76
2023/11/23 11:17:07;;;;;;;21.45;10.57;;;13.30;99.90;;;;;;7381944;19;20032;-81
2023/11/23 11:19:51;;;;;;;19.10;10.07;;;13.30;99.90;;;;;;7388362;19;20087;-78
2023/11/23 11:22:19;;;;;;;19.95;9.93;;;13.40;99.90;;;;;;7385877;19;20015;-77
2023/11/23 11:24:59;;;;;;;15.00;10.63;;;13.20;99.90;;;;;;7391340;19;20089;-77
2023/11/23 11:27:36;;;;;;;23.73;9.48;;;13.40;99.90;;;;;;7410452;19;20007;-75
2023/11/23 11:30:06;;;;;;;18.85;8.95;;;13.40;99.90;;;;;;7386513;19;20018;-75
2023/11/23 11:32:38;;;;;;;16.23;8.57;;;13.40;99.90;;;;;;7391751;19;20006;-80
2023/11/23 11:35:10;;;;;;;18.17;9.05;;;13.50;99.90;;;;;;7389685;19;20010;-77
2023/11/23 11:37:42;;;;;;;23.63;9.40;;;13.50;99.90;;;;;;7386563;19;19998;-74
2023/11/23 11:40:13;;;;;;;12.13;8.18;;;13.60;99.90;;;;;;7385472;19;20031;-74
2023/11/23 11:42:45;;;;;;;26.88;12.65;;;13.60;99.90;;;;;;7406640;19;20009;-75
2023/11/23 11:45:14;;;;;;;19.98;8.50;;;13.50;99.90;;;;;;7382654;19;20271;-76
2023/11/23 11:47:43;;;;;;;25.20;13.00;;;13.50;99.90;;;;;;7383795;19;20010;-75
2023/11/23 11:50:14;;;;;;;17.08;9.77;;;13.50;99.90;;;;;;7384281;19;20089;-75
2023/11/23 11:52:44;;;;;;;18.17;9.00;;;13.60;99.90;;;;;;7384342;19;20082;-77
2023/11/23 11:55:13;;;;;;;15.98;8.48;;;13.60;99.90;;;;;;7386122;19;20006;-77
2023/11/23 11:57:45;;;;;;;14.73;7.47;;;13.70;99.90;;;;;;7406092;19;20109;-74
2023/11/23 12:00:23;;;;;;;16.80;7.18;;;13.70;99.90;;;;;;7385817;19;20003;-80
2023/11/23 12:02:51;;;;;;;24.77;7.93;;;13.70;99.90;;;;;;7411738;19;20007;-81
2023/11/23 12:05:22;;;;;;;15.90;7.82;;;13.70;99.90;;;;;;7387266;19;20010;-78
2023/11/23 12:07:57;;;;;;;12.60;7.82;;;13.60;99.90;;;;;;7386928;19;20304;-81
2023/11/23 12:10:25;;;;;;;21.77;7.28;;;13.60;99.90;;;;;;7387842;19;20248;-79
2023/11/23 12:12:57;;;;;;;13.50;6.65;;;13.60;99.90;;;;;;7384650;19;20007;-79
2023/11/23 12:15:25;;;;;;;17.60;6.50;;;13.70;99.90;;;;;;7404441;19;20017;-78
2023/11/23 12:17:56;;;;;;;15.40;8.13;;;13.60;99.90;;;;;;7383800;19;20066;-76
2023/11/23 12:20:26;;;;;;;14.00;7.70;;;13.60;99.90;;;;;;7387688;19;20023;-78
2023/11/23 12:23:03;;;;;;;13.73;7.68;;;13.60;99.90;;;;;;7384016;19;20003;-77
2023/11/23 12:25:32;;;;;;;15.45;7.30;;;13.60;99.90;;;;;;7385047;19;20078;-77
2023/11/23 12:28:06;;;;;;;11.85;7.50;;;13.60;99.90;;;;;;7384002;19;20343;-77
2023/11/23 12:30:34;;;;;;;13.57;7.07;;;13.60;99.90;;;;;;7405462;19;20010;-78
2023/11/23 12:33:17;;;;;;;12.18;8.20;;;13.70;99.90;;;;;;7389803;19;20024;-81
2023/11/23 12:35:54;;;;;;;12.35;7.45;;;13.70;99.90;;;;;;7389677;19;20015;-81
2023/11/23 12:38:24;;;;;;;25.80;7.95;;;13.70;99.90;;;;;;7385686;19;20017;-78
2023/11/23 12:40:56;;;;;;;11.07;7.15;;;13.70;99.90;;;;;;7387618;19;20027;-78
2023/11/23 12:43:27;;;;;;;13.00;8.82;;;13.70;99.90;;;;;;7386611;19;20023;-79
2023/11/23 12:46:41;;;;;;;22.20;9.23;;;13.70;99.90;;;;;;7383276;19;20007;-83
2023/11/23 12:49:10;;;;;;;14.60;8.18;;;13.80;99.90;;;;;;7389180;19;20006;-80
2023/11/23 12:51:42;;;;;;;26.75;8.70;;;13.80;99.90;;;;;;7408637;19;20003;-79
2023/11/23 12:54:11;;;;;;;14.60;8.00;;;13.80;99.90;;;;;;7385043;19;20035;-75